sensor_id;sensor_type;location;lat;lon;timestamp;P1;durP1;ratioP1;P2;durP2;ratioP2
1615;SDS011;801;47.982;7.810;2023-07-02T00:00:49;0.50;;;0.50;;
1615;SDS011;801;47.982;7.810;2023-07-02T00:03:16;0.30;;;0.30;;
1615;SDS011;801;47.982;7.810;2023-07-02T00:05:43;0.70;;;0.40;;
1615;SDS011;801;47.982;7.810;2023-07-02T00:08:09;0.45;;;0.45;;
1615;SDS011;801;47.982;7.810;2023-07-02T00:10:36;0.93;;;0.60;;
1615;SDS011;801;47.982;7.810;2023-07-02T00:13:02;2.72;;;0.75;;
1615;SDS011;801;47.982;7.810;2023-07-02T00:15:29;0.60;;;0.43;;
1615;SDS011;801;47.982;7.810;2023-07-02T00:17:57;0.70;;;0.70;;
1615;SDS011;801;47.982;7.810;2023-07-02T00:20:23;0.75;;;0.50;;
1615;SDS011;801;47.982;7.810;2023-07-02T00:22:50;0.65;;;0.52;;
1615;SDS011;801;47.982;7.810;2023-07-02T00:25:16;0.90;;;0.40;;
1615;SDS011;801;47.982;7.810;2023-07-02T00:27:42;2.42;;;0.63;;
1615;SDS011;801;47.982;7.810;2023-07-02T00:30:09;0.40;;;0.40;;
1615;SDS011;801;47.982;7.810;2023-07-02T00:32:36;0.43;;;0.43;;
1615;SDS011;801;47.982;7.810;2023-07-02T00:35:04;0.63;;;0.63;;
1615;SDS011;801;47.982;7.810;2023-07-02T00:37:31;2.00;;;0.75;;
1615;SDS011;801;47.982;7.810;2023-07-02T00:39:58;0.30;;;0.30;;
1615;SDS011;801;47.982;7.810;2023-07-02T00:42:24;0.60;;;0.60;;
1615;SDS011;801;47.982;7.810;2023-07-02T00:44:54;0.43;;;0.43;;
1615;SDS011;801;47.982;7.810;2023-07-02T00:47:22;0.30;;;0.30;;
1615;SDS011;801;47.982;7.810;2023-07-02T00:49:49;0.93;;;0.60;;
1615;SDS011;801;47.982;7.810;2023-07-02T00:52:17;0.22;;;0.20;;
1615;SDS011;801;47.982;7.810;2023-07-02T00:54:45;3.95;;;1.27;;
1615;SDS011;801;47.982;7.810;2023-07-02T00:57:11;0.55;;;0.55;;
1615;SDS011;801;47.982;7.810;2023-07-02T00:59:38;1.33;;;1.23;;
1615;SDS011;801;47.982;7.810;2023-07-02T01:02:05;0.63;;;0.60;;
1615;SDS011;801;47.982;7.810;2023-07-02T01:04:31;0.95;;;0.90;;
1615;SDS011;801;47.982;7.810;2023-07-02T01:06:58;0.30;;;0.20;;
1615;SDS011;801;47.982;7.810;2023-07-02T01:09:26;0.98;;;0.70;;
1615;SDS011;801;47.982;7.810;2023-07-02T01:11:53;0.20;;;0.20;;
1615;SDS011;801;47.982;7.810;2023-07-02T01:14:22;0.70;;;0.60;;
1615;SDS011;801;47.982;7.810;2023-07-02T01:16:52;1.02;;;0.45;;
1615;SDS011;801;47.982;7.810;2023-07-02T01:19:22;0.57;;;0.32;;
1615;SDS011;801;47.982;7.810;2023-07-02T01:22:06;0.30;;;0.30;;
1615;SDS011;801;47.982;7.810;2023-07-02T01:24:33;1.20;;;0.65;;
1615;SDS011;801;47.982;7.810;2023-07-02T01:27:00;0.60;;;0.50;;
1615;SDS011;801;47.982;7.810;2023-07-02T01:29:28;0.85;;;0.75;;
1615;SDS011;801;47.982;7.810;2023-07-02T01:31:56;0.68;;;0.38;;
1615;SDS011;801;47.982;7.810;2023-07-02T01:34:23;0.90;;;0.70;;
1615;SDS011;801;47.982;7.810;2023-07-02T01:36:50;0.40;;;0.40;;
1615;SDS011;801;47.982;7.810;2023-07-02T01:39:17;0.40;;;0.40;;
1615;SDS011;801;47.982;7.810;2023-07-02T01:41:44;1.42;;;1.02;;
1615;SDS011;801;47.982;7.810;2023-07-02T01:44:11;1.77;;;1.45;;
1615;SDS011;801;47.982;7.810;2023-07-02T01:46:38;0.85;;;0.85;;
1615;SDS011;801;47.982;7.810;2023-07-02T01:49:04;0.77;;;0.77;;
1615;SDS011;801;47.982;7.810;2023-07-02T01:51:31;1.10;;;0.43;;
1615;SDS011;801;47.982;7.810;2023-07-02T01:53:58;1.05;;;0.60;;
1615;SDS011;801;47.982;7.810;2023-07-02T01:56:25;0.68;;;0.68;;
1615;SDS011;801;47.982;7.810;2023-07-02T01:58:52;2.40;;;0.63;;
1615;SDS011;801;47.982;7.810;2023-07-02T02:01:18;1.63;;;0.45;;
1615;SDS011;801;47.982;7.810;2023-07-02T02:03:45;0.45;;;0.40;;
1615;SDS011;801;47.982;7.810;2023-07-02T02:06:11;0.68;;;0.68;;
1615;SDS011;801;47.982;7.810;2023-07-02T02:08:38;2.75;;;1.17;;
1615;SDS011;801;47.982;7.810;2023-07-02T02:11:06;2.50;;;0.60;;
1615;SDS011;801;47.982;7.810;2023-07-02T02:13:32;1.23;;;0.77;;
1615;SDS011;801;47.982;7.810;2023-07-02T02:15:58;1.42;;;1.13;;
1615;SDS011;801;47.982;7.810;2023-07-02T02:18:25;1.40;;;0.70;;
1615;SDS011;801;47.982;7.810;2023-07-02T02:20:51;0.95;;;0.82;;
1615;SDS011;801;47.982;7.810;2023-07-02T02:23:18;0.60;;;0.60;;
1615;SDS011;801;47.982;7.810;2023-07-02T02:25:44;0.32;;;0.32;;
1615;SDS011;801;47.982;7.810;2023-07-02T02:28:12;0.65;;;0.65;;
1615;SDS011;801;47.982;7.810;2023-07-02T02:30:39;0.30;;;0.30;;
1615;SDS011;801;47.982;7.810;2023-07-02T02:33:05;1.27;;;0.50;;
1615;SDS011;801;47.982;7.810;2023-07-02T02:35:32;0.60;;;0.60;;
1615;SDS011;801;47.982;7.810;2023-07-02T02:38:02;1.50;;;0.63;;
1615;SDS011;801;47.982;7.810;2023-07-02T02:40:29;0.70;;;0.70;;
1615;SDS011;801;47.982;7.810;2023-07-02T02:42:56;0.90;;;0.73;;
1615;SDS011;801;47.982;7.810;2023-07-02T02:45:24;1.27;;;0.80;;
1615;SDS011;801;47.982;7.810;2023-07-02T02:47:50;0.77;;;0.50;;
1615;SDS011;801;47.982;7.810;2023-07-02T02:50:16;2.08;;;1.05;;
1615;SDS011;801;47.982;7.810;2023-07-02T02:52:43;1.73;;;1.02;;
1615;SDS011;801;47.982;7.810;2023-07-02T02:55:11;0.82;;;0.73;;
1615;SDS011;801;47.982;7.810;2023-07-02T02:57:38;0.70;;;0.70;;
1615;SDS011;801;47.982;7.810;2023-07-02T03:00:05;1.42;;;0.70;;
1615;SDS011;801;47.982;7.810;2023-07-02T03:02:34;1.77;;;0.90;;
1615;SDS011;801;47.982;7.810;2023-07-02T03:05:00;1.48;;;1.35;;
1615;SDS011;801;47.982;7.810;2023-07-02T03:07:28;1.27;;;1.08;;
1615;SDS011;801;47.982;7.810;2023-07-02T03:09:54;6.03;;;1.10;;
1615;SDS011;801;47.982;7.810;2023-07-02T03:12:21;2.03;;;1.55;;
1615;SDS011;801;47.982;7.810;2023-07-02T03:14:48;5.18;;;1.85;;
1615;SDS011;801;47.982;7.810;2023-07-02T03:17:18;1.95;;;1.15;;
1615;SDS011;801;47.982;7.810;2023-07-02T03:19:45;5.28;;;1.73;;
1615;SDS011;801;47.982;7.810;2023-07-02T03:22:12;1.17;;;0.60;;
1615;SDS011;801;47.982;7.810;2023-07-02T03:24:39;3.35;;;1.00;;
1615;SDS011;801;47.982;7.810;2023-07-02T03:27:06;1.10;;;0.95;;
1615;SDS011;801;47.982;7.810;2023-07-02T03:29:33;0.90;;;0.85;;
1615;SDS011;801;47.982;7.810;2023-07-02T03:32:00;0.75;;;0.60;;
1615;SDS011;801;47.982;7.810;2023-07-02T03:34:27;1.98;;;1.02;;
1615;SDS011;801;47.982;7.810;2023-07-02T03:36:55;0.80;;;0.65;;
1615;SDS011;801;47.982;7.810;2023-07-02T03:39:21;1.35;;;0.70;;
1615;SDS011;801;47.982;7.810;2023-07-02T03:41:48;2.30;;;1.38;;
1615;SDS011;801;47.982;7.810;2023-07-02T03:44:14;0.90;;;0.63;;
1615;SDS011;801;47.982;7.810;2023-07-02T03:46:41;1.90;;;1.10;;
1615;SDS011;801;47.982;7.810;2023-07-02T03:49:07;2.38;;;0.65;;
1615;SDS011;801;47.982;7.810;2023-07-02T03:51:34;1.80;;;0.85;;
1615;SDS011;801;47.982;7.810;2023-07-02T03:54:01;1.27;;;0.75;;
1615;SDS011;801;47.982;7.810;2023-07-02T03:56:28;5.72;;;2.00;;
1615;SDS011;801;47.982;7.810;2023-07-02T03:58:54;2.83;;;1.38;;
1615;SDS011;801;47.982;7.810;2023-07-02T04:01:21;4.45;;;1.95;;
1615;SDS011;801;47.982;7.810;2023-07-02T04:03:48;2.38;;;1.90;;
1615;SDS011;801;47.982;7.810;2023-07-02T04:06:15;4.03;;;2.05;;
1615;SDS011;801;47.982;7.810;2023-07-02T04:08:42;2.88;;;0.85;;
1615;SDS011;801;47.982;7.810;2023-07-02T04:11:10;7.30;;;2.58;;
1615;SDS011;801;47.982;7.810;2023-07-02T04:13:37;3.00;;;2.55;;
1615;SDS011;801;47.982;7.810;2023-07-02T04:16:04;2.70;;;2.50;;
1615;SDS011;801;47.982;7.810;2023-07-02T04:18:31;15.60;;;3.03;;
1615;SDS011;801;47.982;7.810;2023-07-02T04:20:58;6.18;;;1.98;;
1615;SDS011;801;47.982;7.810;2023-07-02T04:23:24;4.75;;;2.30;;
1615;SDS011;801;47.982;7.810;2023-07-02T04:25:51;4.07;;;1.35;;
1615;SDS011;801;47.982;7.810;2023-07-02T04:28:19;2.30;;;1.60;;
1615;SDS011;801;47.982;7.810;2023-07-02T04:30:45;9.70;;;1.67;;
1615;SDS011;801;47.982;7.810;2023-07-02T04:33:14;2.80;;;2.00;;
1615;SDS011;801;47.982;7.810;2023-07-02T04:35:41;3.70;;;2.38;;
1615;SDS011;801;47.982;7.810;2023-07-02T04:38:08;8.85;;;3.55;;
1615;SDS011;801;47.982;7.810;2023-07-02T04:40:34;2.53;;;1.58;;
1615;SDS011;801;47.982;7.810;2023-07-02T04:43:01;5.38;;;2.40;;
1615;SDS011;801;47.982;7.810;2023-07-02T04:45:30;3.67;;;2.28;;
1615;SDS011;801;47.982;7.810;2023-07-02T04:48:01;5.00;;;2.22;;
1615;SDS011;801;47.982;7.810;2023-07-02T04:50:28;3.72;;;2.47;;
1615;SDS011;801;47.982;7.810;2023-07-02T04:52:54;22.83;;;2.92;;
1615;SDS011;801;47.982;7.810;2023-07-02T04:55:21;5.68;;;2.60;;
1615;SDS011;801;47.982;7.810;2023-07-02T04:57:47;5.45;;;2.25;;
1615;SDS011;801;47.982;7.810;2023-07-02T05:00:14;4.28;;;2.85;;
1615;SDS011;801;47.982;7.810;2023-07-02T05:02:42;11.23;;;3.97;;
1615;SDS011;801;47.982;7.810;2023-07-02T05:05:09;1.95;;;1.75;;
1615;SDS011;801;47.982;7.810;2023-07-02T05:07:35;4.40;;;2.95;;
1615;SDS011;801;47.982;7.810;2023-07-02T05:10:02;12.18;;;4.25;;
1615;SDS011;801;47.982;7.810;2023-07-02T05:12:29;6.13;;;3.08;;
1615;SDS011;801;47.982;7.810;2023-07-02T05:14:56;7.15;;;2.58;;
1615;SDS011;801;47.982;7.810;2023-07-02T05:17:22;9.25;;;3.28;;
1615;SDS011;801;47.982;7.810;2023-07-02T05:19:50;22.52;;;3.75;;
1615;SDS011;801;47.982;7.810;2023-07-02T05:22:17;4.85;;;2.65;;
1615;SDS011;801;47.982;7.810;2023-07-02T05:24:43;7.50;;;2.95;;
1615;SDS011;801;47.982;7.810;2023-07-02T05:27:11;12.85;;;3.53;;
1615;SDS011;801;47.982;7.810;2023-07-02T05:29:38;14.52;;;2.47;;
1615;SDS011;801;47.982;7.810;2023-07-02T05:32:04;6.95;;;3.20;;
1615;SDS011;801;47.982;7.810;2023-07-02T05:34:31;5.90;;;3.50;;
1615;SDS011;801;47.982;7.810;2023-07-02T05:36:59;9.00;;;4.22;;
1615;SDS011;801;47.982;7.810;2023-07-02T05:39:25;9.38;;;3.38;;
1615;SDS011;801;47.982;7.810;2023-07-02T05:41:52;14.05;;;3.20;;
1615;SDS011;801;47.982;7.810;2023-07-02T05:44:18;9.82;;;4.30;;
1615;SDS011;801;47.982;7.810;2023-07-02T05:46:45;4.03;;;2.70;;
1615;SDS011;801;47.982;7.810;2023-07-02T05:49:11;8.30;;;3.80;;
1615;SDS011;801;47.982;7.810;2023-07-02T05:51:38;11.50;;;3.83;;
1615;SDS011;801;47.982;7.810;2023-07-02T05:54:06;9.60;;;4.50;;
1615;SDS011;801;47.982;7.810;2023-07-02T05:56:32;4.50;;;2.47;;
1615;SDS011;801;47.982;7.810;2023-07-02T05:58:59;10.60;;;4.10;;
1615;SDS011;801;47.982;7.810;2023-07-02T06:01:25;6.60;;;2.95;;
1615;SDS011;801;47.982;7.810;2023-07-02T06:03:51;7.38;;;3.33;;
1615;SDS011;801;47.982;7.810;2023-07-02T06:06:18;14.38;;;4.25;;
1615;SDS011;801;47.982;7.810;2023-07-02T06:08:44;9.23;;;4.45;;
1615;SDS011;801;47.982;7.810;2023-07-02T06:11:12;14.25;;;4.50;;
1615;SDS011;801;47.982;7.810;2023-07-02T06:13:39;6.68;;;4.05;;
1615;SDS011;801;47.982;7.810;2023-07-02T06:16:05;8.90;;;3.85;;
1615;SDS011;801;47.982;7.810;2023-07-02T06:18:32;2.47;;;2.10;;
1615;SDS011;801;47.982;7.810;2023-07-02T06:20:58;5.13;;;3.13;;
1615;SDS011;801;47.982;7.810;2023-07-02T06:23:25;9.15;;;3.83;;
1615;SDS011;801;47.982;7.810;2023-07-02T06:25:51;9.40;;;4.50;;
1615;SDS011;801;47.982;7.810;2023-07-02T06:28:25;9.07;;;3.28;;
1615;SDS011;801;47.982;7.810;2023-07-02T06:30:51;4.32;;;3.53;;
1615;SDS011;801;47.982;7.810;2023-07-02T06:33:17;12.57;;;4.63;;
1615;SDS011;801;47.982;7.810;2023-07-02T06:35:44;7.32;;;3.78;;
1615;SDS011;801;47.982;7.810;2023-07-02T06:38:10;3.83;;;1.73;;
1615;SDS011;801;47.982;7.810;2023-07-02T06:40:37;18.25;;;3.42;;
1615;SDS011;801;47.982;7.810;2023-07-02T06:43:03;9.68;;;3.13;;
1615;SDS011;801;47.982;7.810;2023-07-02T06:45:31;3.47;;;2.50;;
1615;SDS011;801;47.982;7.810;2023-07-02T06:47:57;6.75;;;3.10;;
1615;SDS011;801;47.982;7.810;2023-07-02T06:50:24;15.20;;;4.28;;
1615;SDS011;801;47.982;7.810;2023-07-02T06:52:50;5.20;;;3.47;;
1615;SDS011;801;47.982;7.810;2023-07-02T06:55:17;7.30;;;2.90;;
1615;SDS011;801;47.982;7.810;2023-07-02T06:57:43;12.93;;;3.83;;
1615;SDS011;801;47.982;7.810;2023-07-02T07:00:11;9.13;;;4.65;;
1615;SDS011;801;47.982;7.810;2023-07-02T07:02:40;7.82;;;3.83;;
1615;SDS011;801;47.982;7.810;2023-07-02T07:05:07;5.28;;;2.33;;
1615;SDS011;801;47.982;7.810;2023-07-02T07:07:33;5.82;;;2.38;;
1615;SDS011;801;47.982;7.810;2023-07-02T07:10:00;11.18;;;4.68;;
1615;SDS011;801;47.982;7.810;2023-07-02T07:12:26;10.25;;;3.35;;
1615;SDS011;801;47.982;7.810;2023-07-02T07:14:53;6.35;;;3.05;;
1615;SDS011;801;47.982;7.810;2023-07-02T07:17:19;7.78;;;4.63;;
1615;SDS011;801;47.982;7.810;2023-07-02T07:19:47;8.15;;;4.18;;
1615;SDS011;801;47.982;7.810;2023-07-02T07:22:13;10.38;;;4.50;;
1615;SDS011;801;47.982;7.810;2023-07-02T07:24:41;13.20;;;3.78;;
1615;SDS011;801;47.982;7.810;2023-07-02T07:27:07;7.28;;;4.07;;
1615;SDS011;801;47.982;7.810;2023-07-02T07:29:34;7.13;;;3.28;;
1615;SDS011;801;47.982;7.810;2023-07-02T07:32:00;13.50;;;3.17;;
1615;SDS011;801;47.982;7.810;2023-07-02T07:34:27;7.53;;;4.20;;
1615;SDS011;801;47.982;7.810;2023-07-02T07:36:55;11.70;;;4.22;;
1615;SDS011;801;47.982;7.810;2023-07-02T07:39:21;7.03;;;3.38;;
1615;SDS011;801;47.982;7.810;2023-07-02T07:41:48;5.80;;;4.10;;
1615;SDS011;801;47.982;7.810;2023-07-02T07:44:14;7.25;;;3.75;;
1615;SDS011;801;47.982;7.810;2023-07-02T07:46:41;7.75;;;3.88;;
1615;SDS011;801;47.982;7.810;2023-07-02T07:49:07;11.35;;;4.18;;
1615;SDS011;801;47.982;7.810;2023-07-02T07:51:34;9.65;;;4.03;;
1615;SDS011;801;47.982;7.810;2023-07-02T07:54:02;10.40;;;3.67;;
1615;SDS011;801;47.982;7.810;2023-07-02T07:56:29;14.57;;;4.80;;
1615;SDS011;801;47.982;7.810;2023-07-02T07:58:55;15.90;;;4.15;;
1615;SDS011;801;47.982;7.810;2023-07-02T08:01:22;8.90;;;4.18;;
1615;SDS011;801;47.982;7.810;2023-07-02T08:03:48;6.38;;;3.00;;
1615;SDS011;801;47.982;7.810;2023-07-02T08:06:14;8.27;;;4.05;;
1615;SDS011;801;47.982;7.810;2023-07-02T08:08:41;7.43;;;5.00;;
1615;SDS011;801;47.982;7.810;2023-07-02T08:11:09;8.65;;;4.25;;
1615;SDS011;801;47.982;7.810;2023-07-02T08:13:35;6.70;;;3.90;;
1615;SDS011;801;47.982;7.810;2023-07-02T08:16:02;15.55;;;5.18;;
1615;SDS011;801;47.982;7.810;2023-07-02T08:18:29;10.60;;;3.17;;
1615;SDS011;801;47.982;7.810;2023-07-02T08:20:55;20.42;;;5.32;;
1615;SDS011;801;47.982;7.810;2023-07-02T08:23:21;11.88;;;4.25;;
1615;SDS011;801;47.982;7.810;2023-07-02T08:25:48;10.63;;;3.83;;
1615;SDS011;801;47.982;7.810;2023-07-02T08:28:16;11.40;;;4.30;;
1615;SDS011;801;47.982;7.810;2023-07-02T08:30:42;9.13;;;4.35;;
1615;SDS011;801;47.982;7.810;2023-07-02T08:33:09;9.05;;;3.97;;
1615;SDS011;801;47.982;7.810;2023-07-02T08:35:35;7.10;;;3.13;;
1615;SDS011;801;47.982;7.810;2023-07-02T08:38:02;13.85;;;4.47;;
1615;SDS011;801;47.982;7.810;2023-07-02T08:40:28;12.93;;;4.65;;
1615;SDS011;801;47.982;7.810;2023-07-02T08:42:55;6.80;;;2.28;;
1615;SDS011;801;47.982;7.810;2023-07-02T08:45:23;7.53;;;4.00;;
1615;SDS011;801;47.982;7.810;2023-07-02T08:47:50;6.88;;;3.03;;
1615;SDS011;801;47.982;7.810;2023-07-02T08:50:20;8.82;;;4.38;;
1615;SDS011;801;47.982;7.810;2023-07-02T08:52:46;8.00;;;4.82;;
1615;SDS011;801;47.982;7.810;2023-07-02T08:55:13;11.63;;;5.40;;
1615;SDS011;801;47.982;7.810;2023-07-02T08:57:39;10.25;;;4.70;;
1615;SDS011;801;47.982;7.810;2023-07-02T09:00:08;12.60;;;4.32;;
1615;SDS011;801;47.982;7.810;2023-07-02T09:02:36;5.43;;;2.38;;
1615;SDS011;801;47.982;7.810;2023-07-02T09:05:03;16.33;;;5.05;;
1615;SDS011;801;47.982;7.810;2023-07-02T09:07:30;7.45;;;3.20;;
1615;SDS011;801;47.982;7.810;2023-07-02T09:09:57;7.72;;;3.83;;
1615;SDS011;801;47.982;7.810;2023-07-02T09:12:24;8.57;;;4.13;;
1615;SDS011;801;47.982;7.810;2023-07-02T09:14:55;10.75;;;5.07;;
1615;SDS011;801;47.982;7.810;2023-07-02T09:17:26;9.95;;;3.78;;
1615;SDS011;801;47.982;7.810;2023-07-02T09:19:55;10.27;;;4.45;;
1615;SDS011;801;47.982;7.810;2023-07-02T09:22:22;8.52;;;5.72;;
1615;SDS011;801;47.982;7.810;2023-07-02T09:24:52;10.50;;;5.10;;
1615;SDS011;801;47.982;7.810;2023-07-02T09:27:19;9.18;;;4.35;;
1615;SDS011;801;47.982;7.810;2023-07-02T09:29:49;5.63;;;3.15;;
1615;SDS011;801;47.982;7.810;2023-07-02T09:32:24;7.90;;;4.25;;
1615;SDS011;801;47.982;7.810;2023-07-02T09:34:53;14.77;;;4.97;;
1615;SDS011;801;47.982;7.810;2023-07-02T09:37:22;6.80;;;3.22;;
1615;SDS011;801;47.982;7.810;2023-07-02T09:39:49;6.88;;;3.85;;
1615;SDS011;801;47.982;7.810;2023-07-02T09:42:17;7.00;;;3.58;;
1615;SDS011;801;47.982;7.810;2023-07-02T09:44:45;9.77;;;4.57;;
1615;SDS011;801;47.982;7.810;2023-07-02T09:47:12;3.55;;;2.53;;
1615;SDS011;801;47.982;7.810;2023-07-02T09:49:41;8.27;;;4.45;;
1615;SDS011;801;47.982;7.810;2023-07-02T09:52:11;8.00;;;4.05;;
1615;SDS011;801;47.982;7.810;2023-07-02T09:54:41;11.07;;;4.82;;
1615;SDS011;801;47.982;7.810;2023-07-02T09:57:08;9.88;;;4.47;;
1615;SDS011;801;47.982;7.810;2023-07-02T09:59:34;6.13;;;3.75;;
1615;SDS011;801;47.982;7.810;2023-07-02T10:02:01;7.90;;;3.60;;
1615;SDS011;801;47.982;7.810;2023-07-02T10:04:38;9.00;;;5.30;;
1615;SDS011;801;47.982;7.810;2023-07-02T10:07:05;11.73;;;3.75;;
1615;SDS011;801;47.982;7.810;2023-07-02T10:09:36;10.52;;;5.35;;
1615;SDS011;801;47.982;7.810;2023-07-02T10:12:16;12.75;;;4.72;;
1615;SDS011;801;47.982;7.810;2023-07-02T10:14:43;12.90;;;4.10;;
1615;SDS011;801;47.982;7.810;2023-07-02T10:17:10;9.68;;;5.30;;
1615;SDS011;801;47.982;7.810;2023-07-02T10:19:51;5.05;;;3.65;;
1615;SDS011;801;47.982;7.810;2023-07-02T10:22:19;13.50;;;4.75;;
1615;SDS011;801;47.982;7.810;2023-07-02T10:24:52;11.13;;;4.55;;
1615;SDS011;801;47.982;7.810;2023-07-02T10:27:21;7.32;;;3.60;;
1615;SDS011;801;47.982;7.810;2023-07-02T10:29:59;5.70;;;2.63;;
1615;SDS011;801;47.982;7.810;2023-07-02T10:32:26;10.13;;;3.72;;
1615;SDS011;801;47.982;7.810;2023-07-02T10:34:54;9.23;;;2.78;;
1615;SDS011;801;47.982;7.810;2023-07-02T10:37:20;10.90;;;4.93;;
1615;SDS011;801;47.982;7.810;2023-07-02T10:39:47;10.13;;;5.18;;
1615;SDS011;801;47.982;7.810;2023-07-02T10:42:14;7.57;;;3.90;;
1615;SDS011;801;47.982;7.810;2023-07-02T10:44:48;6.28;;;3.45;;
1615;SDS011;801;47.982;7.810;2023-07-02T10:47:16;9.13;;;3.08;;
1615;SDS011;801;47.982;7.810;2023-07-02T10:49:42;13.48;;;3.83;;
1615;SDS011;801;47.982;7.810;2023-07-02T10:52:09;5.80;;;2.80;;
1615;SDS011;801;47.982;7.810;2023-07-02T10:54:39;19.58;;;4.53;;
1615;SDS011;801;47.982;7.810;2023-07-02T10:57:06;6.72;;;3.63;;
1615;SDS011;801;47.982;7.810;2023-07-02T10:59:33;8.18;;;4.43;;
1615;SDS011;801;47.982;7.810;2023-07-02T11:02:01;7.47;;;4.50;;
1615;SDS011;801;47.982;7.810;2023-07-02T11:04:28;9.35;;;4.70;;
1615;SDS011;801;47.982;7.810;2023-07-02T11:06:55;7.90;;;4.30;;
1615;SDS011;801;47.982;7.810;2023-07-02T11:09:22;13.85;;;4.28;;
1615;SDS011;801;47.982;7.810;2023-07-02T11:11:50;11.73;;;4.35;;
1615;SDS011;801;47.982;7.810;2023-07-02T11:14:26;9.70;;;3.45;;
1615;SDS011;801;47.982;7.810;2023-07-02T11:16:53;7.72;;;3.67;;
1615;SDS011;801;47.982;7.810;2023-07-02T11:19:21;8.00;;;3.72;;
1615;SDS011;801;47.982;7.810;2023-07-02T11:21:51;4.05;;;2.25;;
1615;SDS011;801;47.982;7.810;2023-07-02T11:24:26;4.93;;;2.75;;
1615;SDS011;801;47.982;7.810;2023-07-02T11:26:54;7.32;;;3.67;;
1615;SDS011;801;47.982;7.810;2023-07-02T11:29:21;8.27;;;3.60;;
1615;SDS011;801;47.982;7.810;2023-07-02T11:31:47;13.30;;;4.05;;
1615;SDS011;801;47.982;7.810;2023-07-02T11:34:14;21.90;;;4.53;;
1615;SDS011;801;47.982;7.810;2023-07-02T11:36:42;10.30;;;3.42;;
1615;SDS011;801;47.982;7.810;2023-07-02T11:39:09;8.23;;;3.33;;
1615;SDS011;801;47.982;7.810;2023-07-02T11:41:38;12.43;;;3.45;;
1615;SDS011;801;47.982;7.810;2023-07-02T11:44:05;7.00;;;3.90;;
1615;SDS011;801;47.982;7.810;2023-07-02T11:46:31;11.85;;;4.88;;
1615;SDS011;801;47.982;7.810;2023-07-02T11:48:59;5.70;;;2.78;;
1615;SDS011;801;47.982;7.810;2023-07-02T11:51:26;11.07;;;3.67;;
1615;SDS011;801;47.982;7.810;2023-07-02T11:53:54;8.50;;;3.20;;
1615;SDS011;801;47.982;7.810;2023-07-02T11:56:20;5.55;;;3.20;;
1615;SDS011;801;47.982;7.810;2023-07-02T11:58:46;23.10;;;4.00;;
1615;SDS011;801;47.982;7.810;2023-07-02T12:01:13;6.47;;;3.10;;
1615;SDS011;801;47.982;7.810;2023-07-02T12:03:39;9.60;;;4.07;;
1615;SDS011;801;47.982;7.810;2023-07-02T12:06:06;7.53;;;3.20;;
1615;SDS011;801;47.982;7.810;2023-07-02T12:08:32;5.47;;;2.85;;
1615;SDS011;801;47.982;7.810;2023-07-02T12:11:00;3.13;;;1.83;;
1615;SDS011;801;47.982;7.810;2023-07-02T12:13:27;9.93;;;3.30;;
1615;SDS011;801;47.982;7.810;2023-07-02T12:15:53;6.70;;;3.58;;
1615;SDS011;801;47.982;7.810;2023-07-02T12:18:19;10.93;;;4.63;;
1615;SDS011;801;47.982;7.810;2023-07-02T12:20:46;9.00;;;3.35;;
1615;SDS011;801;47.982;7.810;2023-07-02T12:23:12;10.73;;;3.17;;
1615;SDS011;801;47.982;7.810;2023-07-02T12:25:39;7.03;;;2.88;;
1615;SDS011;801;47.982;7.810;2023-07-02T12:28:07;6.70;;;2.13;;
1615;SDS011;801;47.982;7.810;2023-07-02T12:30:33;6.22;;;2.72;;
1615;SDS011;801;47.982;7.810;2023-07-02T12:33:00;11.95;;;2.67;;
1615;SDS011;801;47.982;7.810;2023-07-02T12:35:26;3.53;;;2.30;;
1615;SDS011;801;47.982;7.810;2023-07-02T12:37:53;6.70;;;2.45;;
1615;SDS011;801;47.982;7.810;2023-07-02T12:40:19;9.38;;;2.70;;
1615;SDS011;801;47.982;7.810;2023-07-02T12:42:46;4.20;;;3.10;;
1615;SDS011;801;47.982;7.810;2023-07-02T12:45:16;8.52;;;3.78;;
1615;SDS011;801;47.982;7.810;2023-07-02T12:47:42;5.53;;;3.55;;
1615;SDS011;801;47.982;7.810;2023-07-02T12:50:10;4.70;;;3.03;;
1615;SDS011;801;47.982;7.810;2023-07-02T12:52:36;3.25;;;2.28;;
1615;SDS011;801;47.982;7.810;2023-07-02T12:55:03;7.90;;;2.55;;
1615;SDS011;801;47.982;7.810;2023-07-02T12:57:30;5.65;;;3.65;;
1615;SDS011;801;47.982;7.810;2023-07-02T12:59:57;6.93;;;3.45;;
1615;SDS011;801;47.982;7.810;2023-07-02T13:02:25;8.65;;;3.53;;
1615;SDS011;801;47.982;7.810;2023-07-02T13:04:51;3.90;;;1.90;;
1615;SDS011;801;47.982;7.810;2023-07-02T13:07:17;5.07;;;3.25;;
1615;SDS011;801;47.982;7.810;2023-07-02T13:09:44;8.10;;;2.85;;
1615;SDS011;801;47.982;7.810;2023-07-02T13:12:11;3.50;;;2.15;;
1615;SDS011;801;47.982;7.810;2023-07-02T13:14:37;6.57;;;3.65;;
1615;SDS011;801;47.982;7.810;2023-07-02T13:17:04;9.45;;;4.22;;
1615;SDS011;801;47.982;7.810;2023-07-02T13:19:32;5.93;;;3.38;;
1615;SDS011;801;47.982;7.810;2023-07-02T13:21:59;12.45;;;4.43;;
1615;SDS011;801;47.982;7.810;2023-07-02T13:24:27;12.32;;;3.95;;
1615;SDS011;801;47.982;7.810;2023-07-02T13:26:54;8.93;;;2.45;;
1615;SDS011;801;47.982;7.810;2023-07-02T13:29:21;7.63;;;3.28;;
1615;SDS011;801;47.982;7.810;2023-07-02T13:31:47;9.13;;;3.35;;
1615;SDS011;801;47.982;7.810;2023-07-02T13:34:14;6.30;;;3.05;;
1615;SDS011;801;47.982;7.810;2023-07-02T13:36:42;10.48;;;4.60;;
1615;SDS011;801;47.982;7.810;2023-07-02T13:39:09;10.82;;;4.45;;
1615;SDS011;801;47.982;7.810;2023-07-02T13:41:35;8.20;;;3.58;;
1615;SDS011;801;47.982;7.810;2023-07-02T13:44:01;8.40;;;4.03;;
1615;SDS011;801;47.982;7.810;2023-07-02T13:46:28;5.75;;;3.47;;
1615;SDS011;801;47.982;7.810;2023-07-02T13:48:54;7.78;;;5.28;;
1615;SDS011;801;47.982;7.810;2023-07-02T13:51:21;8.95;;;3.75;;
1615;SDS011;801;47.982;7.810;2023-07-02T13:53:49;7.28;;;2.88;;
1615;SDS011;801;47.982;7.810;2023-07-02T13:56:15;5.90;;;3.72;;
1615;SDS011;801;47.982;7.810;2023-07-02T13:58:46;9.80;;;4.68;;
1615;SDS011;801;47.982;7.810;2023-07-02T14:01:24;8.57;;;3.92;;
1615;SDS011;801;47.982;7.810;2023-07-02T14:03:51;9.95;;;3.78;;
1615;SDS011;801;47.982;7.810;2023-07-02T14:06:18;12.60;;;5.32;;
1615;SDS011;801;47.982;7.810;2023-07-02T14:08:45;10.40;;;5.03;;
1615;SDS011;801;47.982;7.810;2023-07-02T14:11:11;8.43;;;4.13;;
1615;SDS011;801;47.982;7.810;2023-07-02T14:13:37;8.10;;;3.38;;
1615;SDS011;801;47.982;7.810;2023-07-02T14:16:05;11.35;;;4.18;;
1615;SDS011;801;47.982;7.810;2023-07-02T14:18:32;7.93;;;4.05;;
1615;SDS011;801;47.982;7.810;2023-07-02T14:20:58;7.13;;;2.97;;
1615;SDS011;801;47.982;7.810;2023-07-02T14:23:26;9.93;;;4.18;;
1615;SDS011;801;47.982;7.810;2023-07-02T14:25:53;4.57;;;2.92;;
1615;SDS011;801;47.982;7.810;2023-07-02T14:28:19;6.32;;;2.92;;
1615;SDS011;801;47.982;7.810;2023-07-02T14:30:46;7.50;;;3.83;;
1615;SDS011;801;47.982;7.810;2023-07-02T14:33:14;7.32;;;3.20;;
1615;SDS011;801;47.982;7.810;2023-07-02T14:35:41;7.95;;;3.08;;
1615;SDS011;801;47.982;7.810;2023-07-02T14:38:07;9.38;;;3.45;;
1615;SDS011;801;47.982;7.810;2023-07-02T14:40:33;7.82;;;3.33;;
1615;SDS011;801;47.982;7.810;2023-07-02T14:43:00;5.00;;;2.58;;
1615;SDS011;801;47.982;7.810;2023-07-02T14:45:29;9.15;;;2.90;;
1615;SDS011;801;47.982;7.810;2023-07-02T14:47:55;9.30;;;3.00;;
1615;SDS011;801;47.982;7.810;2023-07-02T14:50:26;9.13;;;2.83;;
1615;SDS011;801;47.982;7.810;2023-07-02T14:52:52;9.90;;;4.07;;
1615;SDS011;801;47.982;7.810;2023-07-02T14:55:19;4.68;;;2.85;;
1615;SDS011;801;47.982;7.810;2023-07-02T14:57:45;5.97;;;2.92;;
1615;SDS011;801;47.982;7.810;2023-07-02T15:00:12;11.80;;;3.50;;
1615;SDS011;801;47.982;7.810;2023-07-02T15:02:39;9.05;;;3.70;;
1615;SDS011;801;47.982;7.810;2023-07-02T15:05:06;7.50;;;3.53;;
1615;SDS011;801;47.982;7.810;2023-07-02T15:07:34;4.57;;;2.50;;
1615;SDS011;801;47.982;7.810;2023-07-02T15:10:00;5.93;;;2.67;;
1615;SDS011;801;47.982;7.810;2023-07-02T15:12:26;7.88;;;3.85;;
1615;SDS011;801;47.982;7.810;2023-07-02T15:14:53;4.82;;;2.38;;
1615;SDS011;801;47.982;7.810;2023-07-02T15:17:19;7.20;;;2.47;;
1615;SDS011;801;47.982;7.810;2023-07-02T15:19:46;6.47;;;2.58;;
1615;SDS011;801;47.982;7.810;2023-07-02T15:22:12;3.45;;;2.53;;
1615;SDS011;801;47.982;7.810;2023-07-02T15:24:40;5.68;;;3.08;;
1615;SDS011;801;47.982;7.810;2023-07-02T15:27:06;4.13;;;2.13;;